createdAt,value
2023-10-30T00:00:53.320Z,11.79
2023-10-30T00:03:40.250Z,11.82
2023-10-30T00:06:26.035Z,11.93
2023-10-30T00:09:12.326Z,11.87
2023-10-30T00:11:58.791Z,11.88
2023-10-30T00:14:44.864Z,11.94
2023-10-30T00:17:34.041Z,11.93
2023-10-30T00:20:20.188Z,11.82
2023-10-30T00:23:06.235Z,11.95
2023-10-30T00:25:53.034Z,11.93
2023-10-30T00:28:38.902Z,11.96
2023-10-30T00:31:25.240Z,11.94
2023-10-30T00:34:13.219Z,11.91
2023-10-30T00:36:59.108Z,11.93
2023-10-30T00:39:44.894Z,11.88
2023-10-30T00:42:30.798Z,11.87
2023-10-30T00:45:18.341Z,12.00
2023-10-30T00:48:04.505Z,12.02
2023-10-30T00:50:50.362Z,12.04
2023-10-30T00:53:36.275Z,11.91
2023-10-30T00:56:22.091Z,11.94
2023-10-30T00:59:08.408Z,11.96
2023-10-30T01:01:54.842Z,11.87
2023-10-30T01:04:41.170Z,11.75
2023-10-30T01:07:27.368Z,11.85
2023-10-30T01:10:13.443Z,11.77
2023-10-30T01:12:59.139Z,11.78
2023-10-30T01:15:45.041Z,11.66
2023-10-30T01:18:31.407Z,11.78
2023-10-30T01:21:18.615Z,11.66
2023-10-30T01:24:06.525Z,11.58
2023-10-30T01:26:52.885Z,11.62
2023-10-30T01:29:38.455Z,11.69
2023-10-30T01:32:24.334Z,11.68
2023-10-30T01:35:10.056Z,11.51
2023-10-30T01:37:56.248Z,11.58
2023-10-30T01:40:49.361Z,11.59
2023-10-30T01:43:35.478Z,11.60
2023-10-30T01:46:21.266Z,11.58
2023-10-30T01:49:07.026Z,11.63
2023-10-30T01:51:52.523Z,11.61
2023-10-30T01:54:39.132Z,11.68
2023-10-30T01:57:28.475Z,11.58
2023-10-30T02:00:16.059Z,11.54
2023-10-30T02:03:01.926Z,11.56
2023-10-30T02:05:48.163Z,11.57
2023-10-30T02:08:33.662Z,11.71
2023-10-30T02:11:19.712Z,11.62
2023-10-30T02:14:05.808Z,11.76
2023-10-30T02:16:52.426Z,11.75
2023-10-30T02:19:38.283Z,11.73
2023-10-30T02:22:23.956Z,11.86
2023-10-30T02:25:10.061Z,11.83
2023-10-30T02:27:55.994Z,11.88
2023-10-30T02:30:41.726Z,11.99
2023-10-30T02:33:27.808Z,11.98
2023-10-30T02:36:13.802Z,12.02
2023-10-30T02:39:00.196Z,12.06
2023-10-30T02:41:45.812Z,12.06
2023-10-30T02:44:31.948Z,12.15
2023-10-30T02:47:17.939Z,12.14
2023-10-30T02:50:04.724Z,12.15
2023-10-30T02:52:51.569Z,12.16
2023-10-30T02:55:37.924Z,12.11
2023-10-30T02:58:23.659Z,12.17
2023-10-30T03:01:09.513Z,12.12
2023-10-30T03:03:55.297Z,12.13
2023-10-30T03:06:41.940Z,12.17
2023-10-30T03:09:29.698Z,12.20
2023-10-30T03:12:15.485Z,12.17
2023-10-30T03:15:01.113Z,12.16
2023-10-30T03:17:47.551Z,12.18
2023-10-30T03:20:33.512Z,12.12
2023-10-30T03:23:21.368Z,12.10
2023-10-30T03:26:07.705Z,12.10
2023-10-30T03:28:53.502Z,12.05
2023-10-30T03:31:39.117Z,12.04
2023-10-30T03:34:25.271Z,11.96
2023-10-30T03:37:12.435Z,12.04
2023-10-30T03:39:59.712Z,11.90
2023-10-30T03:42:46.388Z,11.96
2023-10-30T03:45:32.239Z,11.83
2023-10-30T03:48:18.242Z,11.93
2023-10-30T03:51:05.258Z,11.91
2023-10-30T03:53:50.654Z,11.90
2023-10-30T03:56:36.842Z,11.94
2023-10-30T03:59:22.721Z,11.86
2023-10-30T04:02:09.000Z,11.83
2023-10-30T04:04:55.715Z,11.91
2023-10-30T04:07:41.804Z,11.83
2023-10-30T04:10:27.525Z,11.78
2023-10-30T04:13:13.394Z,11.76
2023-10-30T04:15:59.454Z,11.74
2023-10-30T04:18:45.753Z,11.68
2023-10-30T04:21:31.986Z,11.55
2023-10-30T04:24:18.151Z,11.58
2023-10-30T04:27:04.504Z,11.50
2023-10-30T04:29:50.472Z,11.49
2023-10-30T04:32:36.492Z,11.46
2023-10-30T04:35:22.612Z,11.53
2023-10-30T04:38:08.291Z,11.47
2023-10-30T04:40:54.655Z,11.42
2023-10-30T04:43:40.349Z,11.40
2023-10-30T04:46:26.532Z,11.38
2023-10-30T04:49:12.363Z,11.34
2023-10-30T04:51:58.218Z,11.33
2023-10-30T04:54:43.768Z,11.32
2023-10-30T04:57:29.799Z,11.28
2023-10-30T05:00:16.088Z,11.31
2023-10-30T05:03:01.905Z,11.19
2023-10-30T05:05:48.533Z,11.28
2023-10-30T05:08:36.617Z,11.16
2023-10-30T05:11:22.237Z,11.07
2023-10-30T05:14:08.625Z,11.10
2023-10-30T05:16:55.130Z,11.13
2023-10-30T05:19:41.273Z,11.08
2023-10-30T05:22:28.780Z,11.05
2023-10-30T05:25:14.776Z,10.80
2023-10-30T05:28:01.408Z,11.03
2023-10-30T05:30:49.472Z,11.05
2023-10-30T05:33:35.685Z,11.02
2023-10-30T05:36:22.037Z,10.97
2023-10-30T05:39:07.863Z,10.79
2023-10-30T05:41:53.597Z,10.90
2023-10-30T05:44:39.364Z,10.82
2023-10-30T05:47:25.801Z,10.96
2023-10-30T05:50:11.815Z,10.88
2023-10-30T05:52:57.713Z,10.82
2023-10-30T05:55:43.918Z,10.74
2023-10-30T05:58:29.934Z,10.84
2023-10-30T06:01:15.663Z,10.83
2023-10-30T06:04:02.202Z,10.73
2023-10-30T06:06:48.737Z,10.79
2023-10-30T06:09:36.058Z,10.79
2023-10-30T06:12:22.006Z,10.70
2023-10-30T06:15:08.998Z,10.76
2023-10-30T06:17:55.226Z,10.79
2023-10-30T06:20:41.560Z,10.81
2023-10-30T06:23:27.535Z,10.88
2023-10-30T06:26:17.713Z,11.02
2023-10-30T06:29:03.635Z,10.99
2023-10-30T06:31:49.480Z,11.05
2023-10-30T06:34:35.281Z,11.00
2023-10-30T06:37:21.175Z,11.16
2023-10-30T06:40:07.597Z,11.13
2023-10-30T06:42:53.957Z,11.15
2023-10-30T06:45:39.898Z,11.33
2023-10-30T06:48:25.680Z,11.31
2023-10-30T06:51:11.587Z,11.45
2023-10-30T06:53:57.448Z,11.45
2023-10-30T06:56:43.662Z,11.40
2023-10-30T06:59:29.462Z,11.37
2023-10-30T07:02:15.547Z,11.43
2023-10-30T07:05:01.722Z,11.32
2023-10-30T07:07:47.639Z,11.58
2023-10-30T07:10:33.643Z,11.56
2023-10-30T07:13:19.180Z,11.64
2023-10-30T07:16:06.301Z,11.78
2023-10-30T07:18:52.383Z,11.75
2023-10-30T07:21:41.092Z,11.85
2023-10-30T07:24:28.218Z,11.71
2023-10-30T07:27:15.942Z,11.77
2023-10-30T07:30:04.644Z,11.76
2023-10-30T07:32:51.404Z,11.89
2023-10-30T07:35:37.086Z,11.94
2023-10-30T07:38:23.283Z,12.06
2023-10-30T07:41:11.976Z,12.15
2023-10-30T07:43:58.551Z,12.30
2023-10-30T07:46:44.284Z,12.51
2023-10-30T07:49:30.699Z,12.59
2023-10-30T07:52:16.290Z,12.77
2023-10-30T07:55:06.222Z,12.87
2023-10-30T07:57:51.841Z,12.96
2023-10-30T08:00:54.942Z,12.97
2023-10-30T08:03:43.533Z,13.00
2023-10-30T08:06:29.887Z,13.19
2023-10-30T08:09:17.418Z,13.30
2023-10-30T08:12:03.864Z,13.25
2023-10-30T08:14:49.593Z,13.35
2023-10-30T08:17:35.881Z,13.49
2023-10-30T08:20:21.954Z,13.62
2023-10-30T08:23:07.988Z,13.72
2023-10-30T08:25:54.108Z,13.78
2023-10-30T08:28:45.943Z,13.81
2023-10-30T08:31:32.299Z,13.94
2023-10-30T08:34:18.756Z,14.08
2023-10-30T08:37:04.672Z,14.05
2023-10-30T08:39:50.772Z,13.94
2023-10-30T08:42:36.711Z,13.96
2023-10-30T08:45:23.575Z,14.00
2023-10-30T08:48:18.656Z,14.05
2023-10-30T08:51:06.047Z,14.16
2023-10-30T08:53:52.461Z,14.07
2023-10-30T08:56:39.901Z,13.96
2023-10-30T08:59:25.705Z,13.91
2023-10-30T09:02:11.658Z,13.94
2023-10-30T09:04:57.303Z,14.16
2023-10-30T09:07:44.347Z,14.22
2023-10-30T09:10:33.646Z,14.14
2023-10-30T09:13:19.581Z,13.91
2023-10-30T09:16:06.357Z,13.87
2023-10-30T09:18:53.969Z,13.82
2023-10-30T09:21:39.752Z,13.84
2023-10-30T09:24:27.869Z,13.85
2023-10-30T09:27:13.719Z,14.04
2023-10-30T09:29:59.948Z,14.13
2023-10-30T09:32:46.272Z,14.22
2023-10-30T09:35:33.336Z,14.23
2023-10-30T09:38:19.301Z,14.28
2023-10-30T09:41:08.426Z,14.34
2023-10-30T09:43:55.051Z,14.38
2023-10-30T09:46:41.821Z,14.35
2023-10-30T09:49:29.605Z,14.41
2023-10-30T09:52:16.977Z,14.58
2023-10-30T09:55:06.267Z,14.55
2023-10-30T09:57:53.054Z,14.61
2023-10-30T10:00:39.176Z,14.60
2023-10-30T10:03:25.573Z,14.54
2023-10-30T10:06:11.500Z,14.38
2023-10-30T10:08:57.644Z,14.55
2023-10-30T10:11:44.237Z,14.63
2023-10-30T10:14:33.348Z,14.65
2023-10-30T10:17:19.302Z,14.71
2023-10-30T10:20:05.634Z,14.71
2023-10-30T10:22:51.241Z,14.72
2023-10-30T10:25:37.052Z,14.97
2023-10-30T10:28:27.001Z,15.22
2023-10-30T10:31:13.071Z,15.24
2023-10-30T10:33:59.198Z,15.36
2023-10-30T10:36:47.344Z,15.42
2023-10-30T10:39:53.326Z,15.49
2023-10-30T10:42:40.986Z,15.41
2023-10-30T10:45:26.944Z,15.31
2023-10-30T10:48:13.289Z,15.21
2023-10-30T10:51:02.021Z,15.21
2023-10-30T10:53:50.259Z,15.16
2023-10-30T10:56:38.921Z,15.20
2023-10-30T10:59:27.809Z,15.08
2023-10-30T11:02:21.905Z,15.10
2023-10-30T11:05:09.079Z,15.04
2023-10-30T11:08:04.799Z,15.02
2023-10-30T11:10:56.221Z,15.06
2023-10-30T11:14:12.886Z,15.05
2023-10-30T11:17:03.157Z,14.91
2023-10-30T11:19:49.064Z,14.97
2023-10-30T11:22:42.342Z,14.86
2023-10-30T11:25:37.101Z,14.99
2023-10-30T11:28:24.682Z,14.90
2023-10-30T11:31:10.492Z,14.87
2023-10-30T11:34:15.324Z,14.97
2023-10-30T11:37:15.896Z,15.04
2023-10-30T11:40:07.745Z,14.96
2023-10-30T11:42:57.852Z,14.98
2023-10-30T11:45:44.217Z,15.08
2023-10-30T11:48:31.048Z,15.20
2023-10-30T11:51:20.263Z,15.00
2023-10-30T11:54:06.608Z,15.18
2023-10-30T11:56:53.420Z,15.10
2023-10-30T11:59:39.812Z,15.06
2023-10-30T12:02:26.205Z,15.13
2023-10-30T12:05:12.494Z,15.17
2023-10-30T12:07:59.909Z,15.24
2023-10-30T12:10:49.430Z,15.25
2023-10-30T12:13:36.089Z,15.23
2023-10-30T12:16:24.472Z,15.19
2023-10-30T12:19:11.179Z,15.26
2023-10-30T12:21:57.408Z,15.19
2023-10-30T12:24:47.654Z,15.00
2023-10-30T12:27:34.806Z,15.05
2023-10-30T12:30:21.913Z,15.10
2023-10-30T12:33:14.321Z,15.00
2023-10-30T12:36:00.677Z,14.99
2023-10-30T12:38:49.894Z,15.06
2023-10-30T12:41:36.381Z,14.92
2023-10-30T12:44:25.285Z,15.03
2023-10-30T12:47:12.562Z,14.92
2023-10-30T12:49:58.488Z,14.97
2023-10-30T12:52:44.701Z,14.89
2023-10-30T12:55:30.552Z,14.97
2023-10-30T12:58:16.749Z,15.02
2023-10-30T13:03:54.182Z,15.02
2023-10-30T13:06:40.045Z,15.07
2023-10-30T13:09:26.090Z,14.99
2023-10-30T13:12:12.072Z,14.92
2023-10-30T13:14:58.151Z,14.86
2023-10-30T13:17:44.265Z,14.74
2023-10-30T13:20:29.963Z,14.77
2023-10-30T13:23:15.541Z,14.57
2023-10-30T13:26:01.512Z,14.59
2023-10-30T13:28:46.877Z,14.60
2023-10-30T13:31:32.717Z,14.54
2023-10-30T13:34:18.354Z,14.56
2023-10-30T13:37:06.254Z,14.54
2023-10-30T13:39:52.441Z,14.45
2023-10-30T13:42:38.722Z,14.48
2023-10-30T13:45:25.496Z,14.34
2023-10-30T13:48:11.614Z,14.28
2023-10-30T13:50:59.262Z,14.33
2023-10-30T13:53:45.360Z,14.21
2023-10-30T13:56:32.181Z,14.22
2023-10-30T13:59:18.492Z,14.11
2023-10-30T14:02:04.245Z,14.07
2023-10-30T14:04:53.407Z,14.10
2023-10-30T14:07:39.399Z,14.12
2023-10-30T14:10:25.201Z,14.05
2023-10-30T14:13:10.974Z,13.98
2023-10-30T14:15:57.464Z,13.99
2023-10-30T14:18:43.268Z,13.93
2023-10-30T14:21:29.556Z,13.97
2023-10-30T14:24:15.606Z,13.87
2023-10-30T14:27:02.773Z,13.87
2023-10-30T14:29:49.070Z,13.74
2023-10-30T14:32:35.004Z,13.75
2023-10-30T14:35:21.049Z,13.68
2023-10-30T14:38:06.902Z,13.73
2023-10-30T14:40:52.877Z,13.65
2023-10-30T14:43:39.026Z,13.55
2023-10-30T14:46:26.232Z,13.62
2023-10-30T14:49:12.601Z,13.50
2023-10-30T14:52:00.264Z,13.39
2023-10-30T14:54:46.428Z,13.41
2023-10-30T14:57:32.450Z,13.36
2023-10-30T15:00:18.514Z,13.30
2023-10-30T15:03:04.471Z,13.30
2023-10-30T15:05:51.469Z,13.29
2023-10-30T15:08:37.289Z,13.22
2023-10-30T15:11:23.439Z,13.10
2023-10-30T15:14:09.766Z,13.03
2023-10-30T15:16:57.883Z,13.06
2023-10-30T15:19:43.537Z,13.02
2023-10-30T15:22:29.728Z,12.91
2023-10-30T15:25:15.676Z,12.88
2023-10-30T15:28:02.721Z,12.78
2023-10-30T15:30:52.374Z,12.68
2023-10-30T15:33:38.836Z,12.77
2023-10-30T15:36:28.233Z,12.62
2023-10-30T15:39:15.972Z,12.67
2023-10-30T15:42:02.210Z,12.59
2023-10-30T15:44:48.331Z,12.49
2023-10-30T15:47:36.265Z,12.41
2023-10-30T15:50:25.541Z,12.37
2023-10-30T15:58:48.644Z,12.23
2023-10-30T16:01:35.124Z,12.08
2023-10-30T16:04:21.404Z,11.98
2023-10-30T16:07:08.505Z,11.90
2023-10-30T16:10:11.925Z,11.82
2023-10-30T16:13:00.645Z,11.74
2023-10-30T16:15:49.713Z,11.67
2023-10-30T16:18:35.873Z,11.67
2023-10-30T16:21:23.927Z,11.65
2023-10-30T16:24:11.437Z,11.56
2023-10-30T16:26:58.197Z,11.64
2023-10-30T16:29:45.109Z,11.63
2023-10-30T16:32:30.947Z,11.61
2023-10-30T16:35:17.015Z,11.53
2023-10-30T16:38:02.697Z,11.49
2023-10-30T16:40:48.925Z,11.57
2023-10-30T16:43:34.949Z,11.50
2023-10-30T16:46:20.949Z,11.48
2023-10-30T16:49:06.853Z,11.54
2023-10-30T16:51:52.920Z,11.42
2023-10-30T16:54:38.886Z,11.46
2023-10-30T16:57:24.744Z,11.44
2023-10-30T17:00:11.230Z,11.47
2023-10-30T17:02:57.321Z,11.45
2023-10-30T17:05:43.390Z,11.33
2023-10-30T17:08:29.400Z,11.21
2023-10-30T17:11:16.465Z,11.23
2023-10-30T17:14:02.448Z,11.27
2023-10-30T17:16:48.647Z,11.21
2023-10-30T17:19:34.699Z,11.10
2023-10-30T17:22:20.719Z,11.17
2023-10-30T17:25:07.306Z,11.03
2023-10-30T17:27:53.238Z,11.07
2023-10-30T17:30:39.877Z,10.99
2023-10-30T17:33:26.324Z,11.02
2023-10-30T17:36:12.360Z,10.96
2023-10-30T17:38:58.139Z,10.93
2023-10-30T17:41:44.318Z,10.90
2023-10-30T17:44:30.199Z,10.77
2023-10-30T17:47:16.440Z,10.87
2023-10-30T17:50:02.513Z,10.87
2023-10-30T17:52:49.713Z,10.74
2023-10-30T17:55:35.810Z,10.81
2023-10-30T17:58:22.152Z,10.77
2023-10-30T18:01:15.586Z,10.70
2023-10-30T18:04:01.570Z,10.60
2023-10-30T18:06:47.411Z,10.57
2023-10-30T18:09:33.214Z,10.67
2023-10-30T18:12:18.741Z,10.62
2023-10-30T18:15:05.302Z,10.53
2023-10-30T18:17:51.449Z,10.59
2023-10-30T18:20:44.362Z,10.61
2023-10-30T18:23:32.635Z,10.61
2023-10-30T18:26:24.219Z,10.62
2023-10-30T18:29:13.614Z,10.60
2023-10-30T18:32:04.119Z,10.60
2023-10-30T18:34:49.853Z,10.61
2023-10-30T18:37:35.557Z,10.58
2023-10-30T18:40:21.267Z,10.60
2023-10-30T18:43:07.478Z,10.60
2023-10-30T18:45:53.616Z,10.57
2023-10-30T18:48:39.656Z,10.62
2023-10-30T18:51:26.644Z,10.62
2023-10-30T18:54:13.123Z,10.68
2023-10-30T18:56:59.494Z,10.77
2023-10-30T18:59:45.503Z,10.85
2023-10-30T19:02:31.475Z,10.93
2023-10-30T19:05:17.606Z,10.96
2023-10-30T19:08:04.686Z,10.98
2023-10-30T19:10:51.134Z,11.07
2023-10-30T19:13:37.267Z,11.03
2023-10-30T19:16:23.337Z,11.21
2023-10-30T19:19:09.030Z,11.27
2023-10-30T19:21:54.674Z,11.19
2023-10-30T19:24:40.331Z,11.27
2023-10-30T19:27:26.260Z,11.40
2023-10-30T19:30:12.658Z,11.36
2023-10-30T19:32:59.278Z,11.35
2023-10-30T19:35:44.794Z,11.34
2023-10-30T19:38:32.194Z,11.34
2023-10-30T19:41:17.816Z,11.32
2023-10-30T19:44:04.090Z,11.44
2023-10-30T19:46:50.359Z,11.35
2023-10-30T19:49:36.512Z,11.36
2023-10-30T19:52:21.931Z,11.37
2023-10-30T19:55:09.061Z,11.33
2023-10-30T19:57:55.042Z,11.31
2023-10-30T20:00:40.735Z,11.35
2023-10-30T20:03:26.299Z,11.29
2023-10-30T20:06:12.160Z,11.22
2023-10-30T20:08:57.545Z,11.14
2023-10-30T20:11:44.073Z,11.24
2023-10-30T20:14:29.964Z,11.27
2023-10-30T20:17:16.055Z,11.25
2023-10-30T20:20:01.873Z,11.22
2023-10-30T20:22:48.228Z,11.22
2023-10-30T20:25:33.875Z,11.17
2023-10-30T20:28:19.970Z,11.04
2023-10-30T20:31:05.953Z,11.19
2023-10-30T20:33:51.927Z,11.17
2023-10-30T20:36:38.440Z,11.13
2023-10-30T20:39:26.159Z,11.17
2023-10-30T20:42:11.881Z,11.17
2023-10-30T20:44:58.191Z,11.13
2023-10-30T20:47:44.462Z,11.02
2023-10-30T20:50:30.579Z,11.06
2023-10-30T20:53:17.741Z,11.06
2023-10-30T20:56:04.530Z,11.01
2023-10-30T20:58:50.440Z,10.91
2023-10-30T21:01:36.700Z,11.11
2023-10-30T21:04:22.866Z,11.08
2023-10-30T21:07:08.803Z,11.08
2023-10-30T21:09:55.232Z,11.15
2023-10-30T21:12:41.448Z,11.07
2023-10-30T21:15:26.971Z,11.18
2023-10-30T21:18:13.530Z,11.11
2023-10-30T21:21:00.042Z,11.11
2023-10-30T21:23:46.209Z,11.13
2023-10-30T21:26:32.500Z,11.07
2023-10-30T21:29:20.132Z,11.07
2023-10-30T21:32:06.668Z,11.07
2023-10-30T21:34:52.697Z,11.03
2023-10-30T21:37:38.996Z,11.03
2023-10-30T21:40:24.732Z,10.97
2023-10-30T21:43:10.359Z,10.92
2023-10-30T21:45:56.619Z,10.97
2023-10-30T21:48:43.753Z,10.90
2023-10-30T21:51:30.098Z,10.78
2023-10-30T21:54:16.058Z,10.83
2023-10-30T21:57:02.299Z,10.71
2023-10-30T21:59:48.223Z,10.78
2023-10-30T22:02:34.797Z,10.68
2023-10-30T22:05:22.163Z,10.64
2023-10-30T22:08:09.628Z,10.61
2023-10-30T22:10:55.309Z,10.72
2023-10-30T22:13:41.693Z,10.73
2023-10-30T22:16:27.535Z,10.62
2023-10-30T22:19:13.493Z,10.73
2023-10-30T22:21:59.239Z,10.84
2023-10-30T22:24:45.528Z,10.88
2023-10-30T22:27:32.173Z,10.94
2023-10-30T22:30:25.826Z,10.98
2023-10-30T22:33:14.528Z,10.93
2023-10-30T22:36:03.276Z,10.97
2023-10-30T22:38:49.258Z,10.98
2023-10-30T22:41:34.998Z,11.04
2023-10-30T22:44:21.124Z,11.10
2023-10-30T22:47:07.687Z,10.99
2023-10-30T22:49:53.743Z,11.11
2023-10-30T22:52:40.386Z,11.15
2023-10-30T22:55:29.229Z,11.03
2023-10-30T22:58:15.573Z,11.15
2023-10-30T23:01:01.440Z,11.17
2023-10-30T23:03:48.964Z,11.21
2023-10-30T23:06:34.835Z,11.26
2023-10-30T23:09:21.934Z,11.17
2023-10-30T23:12:07.802Z,11.19
2023-10-30T23:14:53.989Z,11.16
2023-10-30T23:17:40.028Z,11.30
2023-10-30T23:20:27.766Z,11.36
2023-10-30T23:23:13.463Z,11.33
2023-10-30T23:26:00.782Z,11.34
2023-10-30T23:28:46.823Z,11.30
2023-10-30T23:31:33.284Z,11.13
2023-10-30T23:34:19.403Z,11.21
2023-10-30T23:37:05.832Z,11.25
2023-10-30T23:39:52.210Z,11.05
2023-10-30T23:42:38.185Z,11.23
2023-10-30T23:45:25.014Z,11.13
2023-10-30T23:48:14.002Z,11.06
2023-10-30T23:51:00.263Z,11.03
2023-10-30T23:53:46.016Z,11.05
2023-10-30T23:56:31.851Z,11.00
2023-10-30T23:59:17.834Z,11.05
